• Join FlightAware (Why Join?)
  • Login
  • US Flag 
12:20PM EDT


 

Airport Tracker/Info


-or-


 

Live Flight TrackerFlight Track Log ✈ ASQ4633 ✈ 17-Apr-2013 ✈ KEWR - KBTV

Flight Track Log - Related Links

Times and Time Zones

All times are in EDT time to prevent confusion due to time zone crossing. See the ASQ4633 flight status page for this flight to view local times or setup timezone preferences in your user account.

Time Position Orientation Groundspeed Altitude Reporting Facility
EDT Latitude Longitude Course Direction KTS MPH feet Rate Location/Type
02:14PM 40.7000 -74.1667 40° Northeast 159 183 700  Level New York TRACON
02:15PM 40.7500 -74.1167 37° Northeast 198 228 3,000 2,160 Climbing New York TRACON
02:16PM 40.7833 -74.0667 49° Northeast 256 295 5,100 2,100 Climbing New York TRACON
02:17PM 40.8167 -73.9667 66° East 283 326 7,300 2,220 Climbing New York TRACON
02:18PM 40.9579 -73.8588 37° Northeast  Level FlightAware Approximate
02:18PM 40.8500 -73.8667 66° East 290 334 9,600  Level New York TRACON
02:19PM 41.0312 -73.7817 40° Northeast  Level FlightAware Approximate
02:19PM 40.9167 -73.8167 30° Northeast 306 352 11,100  Level New York TRACON
02:21PM 41.0933 -73.6603 34° Northeast 360 414 13,300 1,080 Climbing Boston Center
02:22PM 41.1733 -73.5900 33° Northeast 373 429 14,600 1,500 Climbing Boston Center
02:23PM 41.2658 -73.5061 34° Northeast 378 435 16,300 1,560 Climbing Boston Center
02:24PM 41.3436 -73.4356 34° Northeast 378 435 17,800 1,380 Climbing Boston Center
02:25PM 41.4317 -73.3592 33° Northeast 373 429 19,100 1,380 Climbing Boston Center
02:26PM 41.5136 -73.2744 38° Northeast 378 435 20,700 1,380 Climbing Boston Center
02:27PM 41.6119 -73.2342 17° North 340 391 22,000 1,620 Climbing Boston Center
02:28PM 41.6992 -73.2575 349° North 328 377 24,000 1,320 Climbing Boston Center
02:30PM 41.7931 -73.2669 356° North 328 377 25,000 420 Climbing Boston Center
02:31PM 41.9181 -73.2742 358° North 350 403 25,000  Level Boston Center
02:32PM 42.0306 -73.2842 356° North 377 434 25,000  Level Boston Center
02:33PM 42.1431 -73.2886 358° North 391 450 25,000  Level Boston Center
02:34PM 42.2556 -73.2983 356° North 402 463 25,000  Level Boston Center
02:35PM 42.3972 -73.2947 North 412 474 25,000  Level Boston Center
02:36PM 42.5139 -73.2992 358° North 412 474 25,000  Level Boston Center
02:37PM 42.6261 -73.3233 351° North 412 474 25,000  Level Boston Center
02:38PM 42.7511 -73.3308 357° North 412 474 25,000  Level Boston Center
02:39PM 42.8658 -73.3353 358° North 412 474 25,000  Level Boston Center
02:40PM 42.9786 -73.2858 18° North 412 474 25,000  Level Boston Center
02:41PM 43.0936 -73.2306 19° North 417 480 25,000 -360 Level Boston Center
02:42PM 43.2064 -73.2178 North 412 474 24,300 -540 Descending Boston Center
02:43PM 43.3169 -73.2133 North 407 468 24,000 -900 Descending Boston Center
02:44PM 43.4086 -73.2117 North 384 442 22,600 -1,860 Descending Boston Center
02:45PM 43.5044 -73.2072 North 359 413 20,400 -2,280 Descending Boston Center
02:46PM 43.5900 -73.1997 North 332 382 18,100 -2,100 Descending Boston Center
02:47PM 43.6733 -73.1950 North 307 353 16,200 -2,040 Descending Boston Center
02:48PM 43.7650 -73.1903 North 309 356 14,000 -2,340 Descending Boston Center
02:49PM 43.8672 -73.1889 North 328 377 11,600 -1,800 Descending Boston Center
02:50PM 43.9506 -73.1811 North 307 353 10,500 -1,260 Descending Boston Center
02:51PM 44.0214 -73.1792 North 270 311 9,100 -1,380 Descending Boston Center
02:52PM 44.0922 -73.1714 North 253 291 7,800 -1,320 Descending Boston Center
02:53PM 44.1592 -73.1519 12° North 248 285 6,500 -1,380 Descending Boston Center
02:54PM 44.2258 -73.1294 14° North 242 278 5,200 -1,260 Descending Boston Center
02:55PM 44.2906 -73.1100 12° North 236 272 4,100 -600 Descending Boston Center
02:56PM 44.3428 -73.0844 19° North 216 249 4,000 -540 Descending Boston Center
02:57PM 44.3889 -73.0531 26° Northeast 186 214 3,100 -1,020 Descending Boston Center
02:58PM 44.4200 -73.0736 335° Northwest 137 158 2,000 -1,140 Descending Boston Center